Time,TemperatureF,DewpointF,PressureIn,WindDirection,WindDirectionDegrees,WindSpeedMPH,WindSpeedGustMPH,Humidity,HourlyPrecipIn,Conditions,Clouds,dailyrainin,SolarRadiationWatts/m^2,SoftwareType,DateUTC
2013-01-29 00:01:00,49.0,35.0,-100.00,West,263,7.0,7.0,59,0.00,,,0.00,0.000000,,2013-01-29 07:01:00,
2013-01-29 00:32:00,48.0,34.0,-100.00,West,281,8.0,9.0,58,0.00,,,0.00,0.000000,,2013-01-29 07:32:00,
2013-01-29 00:42:00,48.0,34.0,-100.00,West,281,8.0,9.0,58,0.00,,,0.00,0.000000,,2013-01-29 07:42:00,
2013-01-29 00:52:00,48.0,34.0,-100.00,West,281,8.0,9.0,58,0.00,,,0.00,0.000000,,2013-01-29 07:52:00,
2013-01-29 01:01:00,48.0,34.0,-100.00,West,281,8.0,9.0,58,0.00,,,0.00,0.000000,,2013-01-29 08:01:00,
2013-01-29 01:32:00,49.0,34.0,-100.00,West,281,10.0,13.0,57,0.00,,,0.00,0.000000,,2013-01-29 08:32:00,
2013-01-29 01:42:00,49.0,34.0,-100.00,West,281,10.0,13.0,57,0.00,,,0.00,0.000000,,2013-01-29 08:42:00,
2013-01-29 01:52:00,49.0,34.0,-100.00,West,281,10.0,13.0,57,0.00,,,0.00,0.000000,,2013-01-29 08:52:00,
2013-01-29 02:01:00,49.0,34.0,-100.00,West,281,10.0,13.0,57,0.00,,,0.00,0.000000,,2013-01-29 09:01:00,
2013-01-29 02:32:00,48.0,34.0,-100.00,WNW,291,9.0,15.0,58,0.00,,,0.00,0.000000,,2013-01-29 09:32:00,
2013-01-29 02:42:00,48.0,34.0,-100.00,WNW,291,9.0,15.0,58,0.00,,,0.00,0.000000,,2013-01-29 09:42:00,
2013-01-29 02:52:00,48.0,34.0,-100.00,WNW,291,9.0,15.0,58,0.00,,,0.00,0.000000,,2013-01-29 09:52:00,
2013-01-29 03:01:00,48.0,34.0,-100.00,WNW,291,9.0,15.0,58,0.00,,,0.00,0.000000,,2013-01-29 10:01:00,
2013-01-29 03:32:00,47.0,37.0,-100.00,North,1,0.0,15.0,68,0.00,,,0.00,0.000000,,2013-01-29 10:32:00,
2013-01-29 03:42:00,47.0,37.0,-100.00,North,1,0.0,15.0,68,0.00,,,0.00,0.000000,,2013-01-29 10:42:00,
2013-01-29 03:52:00,47.0,37.0,-100.00,North,1,0.0,15.0,68,0.00,,,0.00,0.000000,,2013-01-29 10:52:00,
2013-01-29 04:01:00,47.0,37.0,-100.00,North,1,0.0,15.0,68,0.00,,,0.00,0.000000,,2013-01-29 11:01:00,
2013-01-29 04:32:00,44.0,37.0,-100.00,South,186,0.0,13.0,76,0.00,,,0.00,0.000000,,2013-01-29 11:32:00,
2013-01-29 04:42:00,44.0,37.0,-100.00,South,186,0.0,13.0,76,0.00,,,0.00,0.000000,,2013-01-29 11:42:00,
2013-01-29 04:52:00,44.0,37.0,-100.00,South,186,0.0,13.0,76,0.00,,,0.00,0.000000,,2013-01-29 11:52:00,
2013-01-29 05:02:00,44.0,37.0,-100.00,South,186,0.0,13.0,76,0.00,,,0.00,0.000000,,2013-01-29 12:02:00,
2013-01-29 05:33:00,43.0,39.0,-100.00,ENE,74,0.0,5.0,87,0.00,,,0.00,0.000000,,2013-01-29 12:33:00,
2013-01-29 05:43:00,43.0,39.0,-100.00,ENE,74,0.0,5.0,87,0.00,,,0.00,0.000000,,2013-01-29 12:43:00,
2013-01-29 05:52:00,43.0,39.0,-100.00,ENE,74,0.0,5.0,87,0.00,,,0.00,0.000000,,2013-01-29 12:52:00,
2013-01-29 06:01:00,43.0,39.0,-100.00,ENE,74,0.0,5.0,87,0.00,,,0.00,0.000000,,2013-01-29 13:01:00,
2013-01-29 06:32:00,41.0,39.0,-100.00,West,269,0.0,3.0,91,0.00,,,0.00,0.000000,,2013-01-29 13:32:00,
2013-01-29 06:43:00,41.0,39.0,-100.00,West,269,0.0,3.0,91,0.00,,,0.00,0.000000,,2013-01-29 13:43:00,
2013-01-29 06:52:00,41.0,39.0,-100.00,West,269,0.0,3.0,91,0.00,,,0.00,0.000000,,2013-01-29 13:52:00,
2013-01-29 07:01:00,41.0,39.0,-100.00,West,269,0.0,3.0,91,0.00,,,0.00,0.000000,,2013-01-29 14:01:00,
2013-01-29 07:33:00,39.0,37.0,-100.00,NE,54,0.0,2.0,94,0.00,,,0.00,0.000000,,2013-01-29 14:33:00,
2013-01-29 07:43:00,39.0,37.0,-100.00,NE,54,0.0,2.0,94,0.00,,,0.00,0.000000,,2013-01-29 14:43:00,
2013-01-29 07:52:00,39.0,37.0,-100.00,NE,54,0.0,2.0,94,0.00,,,0.00,0.000000,,2013-01-29 14:52:00,
2013-01-29 08:02:00,39.0,37.0,-100.00,NE,54,0.0,2.0,94,0.00,,,0.00,0.000000,,2013-01-29 15:02:00,
2013-01-29 08:33:00,39.0,37.0,-100.00,NE,45,1.0,2.0,93,0.00,,,0.00,0.000000,,2013-01-29 15:33:00,
2013-01-29 08:43:00,39.0,37.0,-100.00,NE,45,1.0,2.0,93,0.00,,,0.00,0.000000,,2013-01-29 15:43:00,
2013-01-29 08:53:00,39.0,37.0,-100.00,NE,45,1.0,2.0,93,0.00,,,0.00,0.000000,,2013-01-29 15:53:00,
2013-01-29 09:02:00,39.0,37.0,-100.00,NE,45,1.0,2.0,93,0.00,,,0.00,0.000000,,2013-01-29 16:02:00,
2013-01-29 09:33:00,40.0,30.0,-100.00,ENE,67,0.0,3.0,68,0.00,,,0.00,20.000000,,2013-01-29 16:33:00,
2013-01-29 09:43:00,40.0,30.0,-100.00,ENE,67,0.0,3.0,68,0.00,,,0.00,20.000000,,2013-01-29 16:43:00,
2013-01-29 09:53:00,40.0,30.0,-100.00,ENE,67,0.0,3.0,68,0.00,,,0.00,20.000000,,2013-01-29 16:53:00,
2013-01-29 10:02:00,40.0,30.0,-100.00,ENE,67,0.0,3.0,68,0.00,,,0.00,20.000000,,2013-01-29 17:02:00,
2013-01-29 10:33:00,50.0,34.0,-100.00,NNE,24,1.0,3.0,53,-99.99,,,0.00,223.000000,,2013-01-29 17:33:00,
2013-01-29 10:42:00,50.0,34.0,-100.00,NNE,24,1.0,3.0,53,-99.99,,,0.00,223.000000,,2013-01-29 17:42:00,
2013-01-29 10:52:00,50.0,34.0,-100.00,NNE,24,1.0,3.0,53,-99.99,,,0.00,223.000000,,2013-01-29 17:52:00,
2013-01-29 11:03:00,50.0,34.0,-100.00,NNE,24,1.0,3.0,53,-99.99,,,0.00,223.000000,,2013-01-29 18:03:00,
2013-01-29 11:33:00,56.0,27.0,-100.00,North,355,1.0,4.0,33,0.00,,,0.00,459.000000,,2013-01-29 18:33:00,
2013-01-29 12:01:00,56.0,27.0,-100.00,North,355,1.0,4.0,33,0.00,,,0.00,459.000000,,2013-01-29 19:01:00,
2013-01-29 12:33:00,59.0,26.0,-100.00,SSW,204,1.0,4.0,28,0.00,,,0.00,651.000000,,2013-01-29 19:33:00,
2013-01-29 13:01:00,59.0,26.0,-100.00,SSW,204,1.0,4.0,28,0.00,,,0.00,651.000000,,2013-01-29 20:01:00,
2013-01-29 13:33:00,64.0,32.0,-100.00,West,261,5.0,5.0,30,0.00,,,0.00,746.000000,,2013-01-29 20:33:00,
2013-01-29 13:42:00,64.0,32.0,-100.00,West,261,5.0,5.0,30,0.00,,,0.00,746.000000,,2013-01-29 20:42:00,
2013-01-29 13:53:00,64.0,32.0,-100.00,West,261,5.0,5.0,30,0.00,,,0.00,746.000000,,2013-01-29 20:53:00,
2013-01-29 14:02:00,64.0,32.0,-100.00,West,261,5.0,5.0,30,0.00,,,0.00,746.000000,,2013-01-29 21:02:00,
2013-01-29 14:34:00,61.0,29.0,-100.00,West,269,5.0,10.0,29,0.00,,,0.00,796.000000,,2013-01-29 21:34:00,
2013-01-29 14:42:00,61.0,29.0,-100.00,West,269,5.0,10.0,29,0.00,,,0.00,796.000000,,2013-01-29 21:42:00,
2013-01-29 14:53:00,61.0,29.0,-100.00,West,269,5.0,10.0,29,0.00,,,0.00,796.000000,,2013-01-29 21:53:00,
2013-01-29 15:02:00,61.0,29.0,-100.00,West,269,5.0,10.0,29,0.00,,,0.00,796.000000,,2013-01-29 22:02:00,
2013-01-29 15:42:00,64.0,28.0,-100.00,West,261,7.0,14.0,26,0.00,,,0.00,835.000000,,2013-01-29 22:42:00,
2013-01-29 15:53:00,64.0,28.0,-100.00,West,261,7.0,14.0,26,0.00,,,0.00,835.000000,,2013-01-29 22:53:00,
2013-01-29 16:02:00,64.0,28.0,-100.00,West,261,7.0,14.0,26,0.00,,,0.00,835.000000,,2013-01-29 23:02:00,
2013-01-29 16:33:00,63.0,26.0,-100.00,WSW,254,5.0,11.0,24,0.00,,,0.00,734.000000,,2013-01-29 23:33:00,
2013-01-29 16:42:00,63.0,26.0,-100.00,WSW,254,5.0,11.0,24,0.00,,,0.00,734.000000,,2013-01-29 23:42:00,
2013-01-29 16:53:00,63.0,26.0,-100.00,WSW,254,5.0,11.0,24,0.00,,,0.00,734.000000,,2013-01-29 23:53:00,
2013-01-29 17:02:00,63.0,26.0,-100.00,WSW,254,5.0,11.0,24,0.00,,,0.00,734.000000,,2013-01-30 00:02:00,
2013-01-29 17:33:00,64.0,33.0,-100.00,SW,217,3.0,11.0,31,0.00,,,0.00,585.000000,,2013-01-30 00:33:00,
2013-01-29 17:43:00,64.0,33.0,-100.00,SW,217,3.0,11.0,31,0.00,,,0.00,585.000000,,2013-01-30 00:43:00,
2013-01-29 17:52:00,64.0,33.0,-100.00,SW,217,3.0,11.0,31,0.00,,,0.00,585.000000,,2013-01-30 00:52:00,
2013-01-29 18:01:00,64.0,33.0,-100.00,SW,217,3.0,11.0,31,0.00,,,0.00,585.000000,,2013-01-30 01:01:00,
2013-01-29 18:32:00,63.0,39.0,-100.00,South,189,4.0,8.0,41,0.00,,,0.00,320.000000,,2013-01-30 01:32:00,
2013-01-29 18:42:00,63.0,39.0,-100.00,South,189,4.0,8.0,41,0.00,,,0.00,320.000000,,2013-01-30 01:42:00,
2013-01-29 18:52:00,63.0,39.0,-100.00,South,189,4.0,8.0,41,0.00,,,0.00,320.000000,,2013-01-30 01:52:00,
2013-01-29 19:02:00,63.0,39.0,-100.00,South,189,4.0,8.0,41,0.00,,,0.00,320.000000,,2013-01-30 02:02:00,
2013-01-29 19:33:00,60.0,44.0,-100.00,SSE,160,2.0,7.0,56,0.00,,,0.00,123.000000,,2013-01-30 02:33:00,
2013-01-29 19:42:00,60.0,44.0,-100.00,SSE,160,2.0,7.0,56,0.00,,,0.00,123.000000,,2013-01-30 02:42:00,
2013-01-29 19:53:00,60.0,44.0,-100.00,SSE,160,2.0,7.0,56,0.00,,,0.00,123.000000,,2013-01-30 02:53:00,
2013-01-29 20:02:00,60.0,44.0,-100.00,SSE,160,2.0,7.0,56,0.00,,,0.00,123.000000,,2013-01-30 03:02:00,
2013-01-29 20:32:00,55.0,38.0,-100.00,South,190,3.0,6.0,53,0.00,,,0.00,1.000000,,2013-01-30 03:32:00,
2013-01-29 20:42:00,55.0,38.0,-100.00,South,190,3.0,6.0,53,0.00,,,0.00,1.000000,,2013-01-30 03:42:00,
2013-01-29 20:52:00,55.0,38.0,-100.00,South,190,3.0,6.0,53,0.00,,,0.00,1.000000,,2013-01-30 03:52:00,
2013-01-29 21:02:00,55.0,38.0,-100.00,South,190,3.0,6.0,53,0.00,,,0.00,1.000000,,2013-01-30 04:02:00,
2013-01-29 21:32:00,55.0,38.0,-100.00,South,170,4.0,5.0,53,0.00,,,0.00,0.000000,,2013-01-30 04:32:00,
2013-01-29 21:42:00,55.0,38.0,-100.00,South,170,4.0,5.0,53,0.00,,,0.00,0.000000,,2013-01-30 04:42:00,
2013-01-29 21:52:00,55.0,38.0,-100.00,South,170,4.0,5.0,53,0.00,,,0.00,0.000000,,2013-01-30 04:52:00,
2013-01-29 22:03:00,55.0,38.0,-100.00,South,170,4.0,5.0,53,0.00,,,0.00,0.000000,,2013-01-30 05:03:00,
2013-01-29 22:32:00,54.0,38.0,-100.00,SSW,200,4.0,7.0,55,0.00,,,0.00,0.000000,,2013-01-30 05:32:00,
2013-01-29 22:43:00,54.0,38.0,-100.00,SSW,200,4.0,7.0,55,0.00,,,0.00,0.000000,,2013-01-30 05:43:00,
2013-01-29 22:52:00,54.0,38.0,-100.00,SSW,200,4.0,7.0,55,0.00,,,0.00,0.000000,,2013-01-30 05:52:00,
2013-01-29 23:02:00,54.0,38.0,-100.00,SSW,200,4.0,7.0,55,0.00,,,0.00,0.000000,,2013-01-30 06:02:00,
2013-01-29 23:32:00,52.0,41.0,-100.00,South,176,2.0,8.0,65,0.00,,,0.00,0.000000,,2013-01-30 06:32:00,
2013-01-29 23:42:00,52.0,41.0,-100.00,South,176,2.0,8.0,65,0.00,,,0.00,0.000000,,2013-01-30 06:42:00,
2013-01-29 23:52:00,52.0,41.0,-100.00,South,176,2.0,8.0,65,0.00,,,0.00,0.000000,,2013-01-30 06:52:00,